Time;durP1;ratioP1;P1;durP2;ratioP2;P2;SDS_P1;SDS_P2;PMS_P1;PMS_P2;Temp;Humidity;BMP_temperature;BMP_pressure;BME280_temperature;BME280_humidity;BME280_pressure;Samples;Min_cycle;Max_cycle;Signal;HPM_P1;HPM_P2
2023/09/24 00:00:46;;;;;;;4.83;2.03;;;;;;;16.47;57.53;98156.31;5029197;28;20525;-72
2023/09/24 00:03:14;;;;;;;5.43;2.50;;;;;;;16.41;57.44;98155.97;5040359;28;20644;-72
2023/09/24 00:05:41;;;;;;;8.03;2.00;;;;;;;16.39;57.36;98160.63;5015085;28;20195;-72
2023/09/24 00:08:07;;;;;;;2.70;2.07;;;;;;;16.39;57.41;98163.25;5035614;28;20545;-73
2023/09/24 00:10:32;;;;;;;3.53;2.27;;;;;;;16.37;57.38;98162.63;5032977;28;20529;-72
2023/09/24 00:12:57;;;;;;;5.07;2.63;;;;;;;16.34;57.11;98167.41;5037836;28;20187;-73
2023/09/24 00:15:23;;;;;;;4.53;2.33;;;;;;;16.35;56.90;98169.88;5034694;28;20271;-72
2023/09/24 00:17:48;;;;;;;5.67;2.37;;;;;;;16.26;56.91;98170.84;5044950;28;20215;-73
2023/09/24 00:20:16;;;;;;;4.40;2.17;;;;;;;16.20;57.13;98169.69;5043723;28;20190;-73
2023/09/24 00:22:42;;;;;;;3.70;2.47;;;;;;;16.17;57.29;98167.41;5030541;28;20184;-74
2023/09/24 00:25:08;;;;;;;4.07;2.20;;;;;;;16.10;57.45;98177.81;5034983;28;20949;-72
2023/09/24 00:27:33;;;;;;;4.43;2.63;;;;;;;16.11;57.02;98179.47;5038358;28;20212;-73
2023/09/24 00:29:58;;;;;;;4.57;2.83;;;;;;;16.03;57.46;98181.28;5029891;28;20521;-73
2023/09/24 00:32:24;;;;;;;4.70;2.30;;;;;;;16.00;57.62;98184.25;5031004;28;20217;-73
2023/09/24 00:34:49;;;;;;;3.67;2.30;;;;;;;15.91;57.78;98178.94;5037586;28;20501;-72
2023/09/24 00:37:15;;;;;;;3.50;2.20;;;;;;;15.87;57.65;98182.09;5036808;28;20282;-73
2023/09/24 00:39:40;;;;;;;3.57;2.30;;;;;;;15.86;57.73;98183.88;5031325;28;20219;-72
2023/09/24 00:42:09;;;;;;;4.87;2.33;;;;;;;15.79;57.70;98185.50;5040326;28;20194;-72
2023/09/24 00:44:34;;;;;;;4.30;2.33;;;;;;;15.74;57.98;98179.88;5042115;28;20559;-72
2023/09/24 00:46:59;;;;;;;3.53;2.00;;;;;;;15.81;57.45;98181.69;5031486;28;20417;-72
2023/09/24 00:49:25;;;;;;;4.73;2.27;;;;;;;15.78;57.47;98189.13;5027336;28;20579;-73
2023/09/24 00:51:50;;;;;;;3.87;1.90;;;;;;;15.73;57.61;98186.97;5018346;28;20187;-73
2023/09/24 00:54:16;;;;;;;2.87;2.30;;;;;;;15.76;57.48;98175.25;5042637;28;20218;-72
2023/09/24 00:56:42;;;;;;;4.40;2.30;;;;;;;15.66;57.84;98175.38;5036294;28;20226;-72
2023/09/24 00:59:08;;;;;;;3.37;2.60;;;;;;;15.61;57.89;98180.34;5030445;28;20474;-72
2023/09/24 01:01:34;;;;;;;3.53;2.20;;;;;;;15.58;57.89;98184.09;5040410;28;20192;-71
2023/09/24 01:04:03;;;;;;;3.40;2.43;;;;;;;15.56;57.89;98180.81;5041146;28;20187;-71
2023/09/24 01:06:30;;;;;;;4.73;2.60;;;;;;;15.57;57.34;98182.44;5031394;28;20429;-72
2023/09/24 01:08:57;;;;;;;2.13;1.90;;;;;;;15.49;57.89;98190.34;5020101;28;20557;-72
2023/09/24 01:11:24;;;;;;;7.67;2.70;;;;;;;15.45;57.87;98195.13;5036812;28;20433;-72
2023/09/24 01:13:49;;;;;;;4.10;2.70;;;;;;;15.49;57.87;98195.63;5038961;28;20676;-72
2023/09/24 01:16:15;;;;;;;2.97;2.33;;;;;;;15.50;57.95;98200.75;5035024;28;20467;-73
2023/09/24 01:18:41;;;;;;;4.83;2.50;;;;;;;15.51;57.58;98205.06;5032637;28;20286;-72
2023/09/24 01:21:11;;;;;;;2.17;1.97;;;;;;;15.51;57.88;98205.06;5033482;28;20183;-72
2023/09/24 01:23:37;;;;;;;3.23;1.70;;;;;;;15.45;57.50;98205.69;5036219;28;20441;-71
2023/09/24 01:26:03;;;;;;;5.33;2.07;;;;;;;15.41;57.82;98204.34;5035670;28;20425;-73
2023/09/24 01:28:29;;;;;;;4.60;2.20;;;;;;;15.41;57.85;98204.34;5033415;28;20966;-72
2023/09/24 01:30:55;;;;;;;2.13;1.90;;;;;;;15.50;57.17;98195.47;5032115;28;20188;-72
2023/09/24 01:33:21;;;;;;;2.37;1.90;;;;;;;15.44;57.30;98196.13;5036264;28;21136;-72
2023/09/24 01:35:49;;;;;;;4.50;2.30;;;;;;;15.46;57.09;98194.16;5021327;28;20203;-73
2023/09/24 01:38:16;;;;;;;4.30;2.00;;;;;;;15.44;57.08;98192.63;5001374;28;20461;-71
2023/09/24 01:40:41;;;;;;;3.73;2.33;;;;;;;15.40;57.17;98192.13;5047897;28;20195;-71
2023/09/24 01:43:08;;;;;;;3.30;2.30;;;;;;;15.24;57.60;98195.53;5041769;28;20426;-72
2023/09/24 01:45:38;;;;;;;4.50;2.20;;;;;;;15.24;57.41;98202.66;5018771;28;20647;-72
2023/09/24 01:48:04;;;;;;;5.33;2.30;;;;;;;15.26;57.41;98204.13;5023737;28;20811;-69
2023/09/24 01:50:32;;;;;;;6.43;2.17;;;;;;;15.18;57.52;98202.28;5035133;28;20441;-73
2023/09/24 01:52:58;;;;;;;2.80;2.17;;;;;;;15.11;57.58;98203.06;5030772;28;20422;-73
2023/09/24 01:55:25;;;;;;;4.57;2.20;;;;;;;15.01;57.86;98198.72;5041882;28;20960;-72
2023/09/24 01:57:51;;;;;;;3.43;2.47;;;;;;;15.00;57.74;98209.44;5037125;28;20470;-73
2023/09/24 02:00:25;;;;;;;2.87;2.40;;;;;;;14.98;58.52;98206.13;5034836;28;20760;-72
2023/09/24 02:02:52;;;;;;;4.13;2.40;;;;;;;15.00;57.95;98201.50;5042593;28;20810;-73
2023/09/24 02:05:19;;;;;;;6.20;2.43;;;;;;;14.97;57.84;98201.84;5040227;28;20982;-72
2023/09/24 02:07:45;;;;;;;3.33;2.40;;;;;;;14.98;57.54;98203.50;5023904;28;20813;-72
2023/09/24 02:10:13;;;;;;;5.53;2.40;;;;;;;14.93;57.72;98200.50;5045747;28;20421;-72
2023/09/24 02:12:39;;;;;;;2.73;1.93;;;;;;;14.87;57.66;98197.47;5050619;28;20674;-73
2023/09/24 02:15:09;;;;;;;3.47;2.23;;;;;;;14.85;57.54;98201.25;5041988;28;20426;-71
2023/09/24 02:17:35;;;;;;;3.20;2.10;;;;;;;14.83;57.85;98209.34;5035366;28;20211;-71
2023/09/24 02:20:08;;;;;;;6.43;2.30;;;;;;;14.79;57.76;98209.81;5024286;28;20422;-70
2023/09/24 02:22:34;;;;;;;2.87;2.50;;;;;;;14.76;57.75;98210.94;5039359;28;20434;-72
2023/09/24 02:25:00;;;;;;;3.57;2.57;;;;;;;14.73;57.84;98211.25;5037459;28;20496;-70
2023/09/24 02:27:25;;;;;;;6.70;1.87;;;;;;;14.72;57.98;98215.69;5033499;28;20191;-72
2023/09/24 02:29:53;;;;;;;3.97;2.43;;;;;;;14.74;57.84;98220.84;5029822;28;20437;-72
2023/09/24 02:32:18;;;;;;;2.53;2.13;;;;;;;14.70;57.84;98230.84;5032643;28;20183;-73
2023/09/24 02:34:44;;;;;;;4.03;2.30;;;;;;;14.65;57.90;98221.69;5039021;28;20768;-72
2023/09/24 02:37:10;;;;;;;2.77;2.40;;;;;;;14.68;57.82;98219.59;5034206;28;20215;-72
2023/09/24 02:39:36;;;;;;;6.47;2.30;;;;;;;14.65;57.95;98225.19;5035378;28;20199;-72
2023/09/24 02:42:02;;;;;;;2.93;2.40;;;;;;;14.62;58.14;98228.13;5033521;28;20445;-71
2023/09/24 02:44:28;;;;;;;5.13;2.50;;;;;;;14.59;58.31;98231.06;5034120;28;20179;-72
2023/09/24 02:46:53;;;;;;;2.50;2.13;;;;;;;14.60;58.15;98230.09;5031545;28;20172;-72
2023/09/24 02:49:20;;;;;;;3.10;2.37;;;;;;;14.60;58.14;98232.72;5033033;28;20214;-72
2023/09/24 02:51:46;;;;;;;4.23;2.20;;;;;;;14.60;58.27;98230.09;5040429;28;20244;-71
2023/09/24 02:54:11;;;;;;;1.90;1.80;;;;;;;14.61;58.14;98231.75;5034836;28;20989;-71
2023/09/24 02:56:37;;;;;;;2.73;2.20;;;;;;;14.63;57.76;98223.66;5027710;28;20223;-72
2023/09/24 02:59:03;;;;;;;2.27;1.97;;;;;;;14.65;57.50;98232.25;5043315;28;20298;-71
2023/09/24 03:01:29;;;;;;;4.17;2.20;;;;;;;14.61;57.66;98228.28;5034155;28;20267;-71
2023/09/24 03:03:54;;;;;;;3.10;2.20;;;;;;;14.63;57.62;98231.56;5049105;28;20917;-70
2023/09/24 03:06:20;;;;;;;5.03;2.10;;;;;;;14.63;57.35;98236.84;5041538;28;20213;-71
2023/09/24 03:08:49;;;;;;;2.20;2.00;;;;;;;14.56;57.52;98232.19;5046633;28;20585;-72
2023/09/24 03:11:14;;;;;;;3.47;2.20;;;;;;;14.51;57.60;98237.09;5032852;28;20187;-72
2023/09/24 03:13:40;;;;;;;2.10;1.87;;;;;;;14.48;57.60;98240.06;5014682;28;20437;-73
2023/09/24 03:16:07;;;;;;;3.50;2.17;;;;;;;14.43;57.87;98243.13;5035954;28;20237;-71
2023/09/24 03:18:33;;;;;;;3.50;2.00;;;;;;;14.44;57.77;98246.59;5026288;28;20457;-71
2023/09/24 03:20:58;;;;;;;3.17;2.00;;;;;;;14.48;58.05;98253.25;5039449;28;20828;-73
2023/09/24 03:23:24;;;;;;;3.70;2.17;;;;;;;14.44;57.68;98251.88;5031235;28;20188;-73
2023/09/24 03:25:49;;;;;;;3.83;1.97;;;;;;;14.37;57.67;98254.28;5030959;28;20187;-72
2023/09/24 03:28:15;;;;;;;2.63;2.10;;;;;;;14.39;57.82;98256.78;5040800;28;20199;-71
2023/09/24 03:30:41;;;;;;;3.47;2.00;;;;;;;14.35;58.04;98255.44;5045552;28;20550;-71
2023/09/24 03:33:06;;;;;;;2.40;2.20;;;;;;;14.36;58.08;98272.91;5032620;28;20215;-71
2023/09/24 03:35:32;;;;;;;2.60;2.13;;;;;;;14.35;58.18;98271.25;5039529;28;20241;-71
2023/09/24 03:37:57;;;;;;;2.80;1.90;;;;;;;14.38;57.71;98265.66;5034005;28;20260;-71
2023/09/24 03:40:24;;;;;;;3.23;2.20;;;;;;;14.24;57.81;98282.84;5033415;28;20187;-72
2023/09/24 03:42:50;;;;;;;6.97;2.30;;;;;;;14.22;57.82;98276.88;5042703;28;20179;-73
2023/09/24 03:45:16;;;;;;;7.07;2.27;;;;;;;14.18;58.02;98275.50;5034745;28;21166;-72
2023/09/24 03:47:42;;;;;;;2.73;2.13;;;;;;;14.19;57.75;98275.38;5038048;28;20583;-73
2023/09/24 03:50:13;;;;;;;10.03;2.43;;;;;;;14.21;58.08;98280.50;5047017;28;20430;-72
2023/09/24 03:52:46;;;;;;;6.13;2.50;;;;;;;14.18;57.78;98286.06;5027463;28;20179;-71
2023/09/24 03:55:12;;;;;;;3.80;2.20;;;;;;;14.10;58.03;98282.38;5014930;28;20566;-71
2023/09/24 03:57:38;;;;;;;2.30;1.70;;;;;;;14.10;58.19;98285.00;5025795;28;20496;-70
2023/09/24 04:00:16;;;;;;;2.20;1.80;;;;;;;14.10;58.35;98284.19;4986695;28;20447;-73
2023/09/24 04:02:48;;;;;;;2.43;2.10;;;;;;;14.16;58.30;98294.13;5035499;28;20517;-71
2023/09/24 04:05:17;;;;;;;2.60;1.73;;;;;;;14.10;58.35;98295.56;5020977;28;20432;-72
2023/09/24 04:07:47;;;;;;;2.33;1.83;;;;;;;14.07;58.23;98301.09;5016313;28;20457;-73
2023/09/24 04:10:14;;;;;;;3.20;2.07;;;;;;;14.05;58.29;98307.50;5033299;28;20946;-73
2023/09/24 04:12:46;;;;;;;1.87;1.70;;;;;;;13.97;58.50;98317.00;5032526;28;20434;-71
2023/09/24 04:15:12;;;;;;;4.77;2.20;;;;;;;13.95;58.43;98324.22;5033068;28;20426;-71
2023/09/24 04:17:39;;;;;;;5.90;2.70;;;;;;;13.98;58.35;98312.53;5009929;28;20533;-71
2023/09/24 04:20:14;;;;;;;3.00;2.10;;;;;;;13.97;58.33;98322.28;5029068;28;20419;-71
2023/09/24 04:22:39;;;;;;;2.40;2.10;;;;;;;14.02;58.52;98328.88;5036369;28;20421;-72
2023/09/24 04:25:05;;;;;;;3.80;1.90;;;;;;;13.94;58.57;98326.97;5036498;28;21022;-72
2023/09/24 04:27:31;;;;;;;2.97;2.00;;;;;;;13.92;58.62;98334.22;5031070;28;20186;-72
2023/09/24 04:29:57;;;;;;;3.10;2.00;;;;;;;13.93;58.06;98326.16;5030280;28;20199;-72
2023/09/24 04:32:22;;;;;;;3.77;2.33;;;;;;;13.95;57.92;98333.91;5025050;28;20727;-73
2023/09/24 04:34:49;;;;;;;3.13;2.27;;;;;;;13.97;57.96;98338.09;5024046;28;20684;-72
2023/09/24 04:37:16;;;;;;;3.60;2.10;;;;;;;13.95;57.72;98340.03;5001874;28;20902;-71
2023/09/24 04:39:44;;;;;;;2.27;2.07;;;;;;;13.89;57.88;98345.88;5022633;28;20825;-71
2023/09/24 04:42:11;;;;;;;4.10;1.80;;;;;;;13.86;58.03;98346.16;5033812;28;20422;-72
2023/09/24 04:44:37;;;;;;;2.50;2.00;;;;;;;13.82;58.17;98344.81;5014988;28;20430;-72
2023/09/24 04:47:04;;;;;;;3.30;2.20;;;;;;;13.82;58.16;98344.81;5034077;28;20514;-72
2023/09/24 04:49:30;;;;;;;3.77;2.23;;;;;;;13.73;58.38;98346.50;5037223;28;20465;-71
2023/09/24 04:51:55;;;;;;;3.40;2.20;;;;;;;13.75;58.47;98354.25;5039631;28;20429;-72
2023/09/24 04:54:22;;;;;;;3.70;2.20;;;;;;;13.75;58.26;98354.25;5027752;28;20438;-73
2023/09/24 04:56:48;;;;;;;2.83;2.30;;;;;;;13.75;58.00;98356.88;5037632;28;20667;-72
2023/09/24 04:59:13;;;;;;;3.00;2.30;;;;;;;13.65;58.21;98352.50;5038264;28;20508;-74
2023/09/24 05:01:39;;;;;;;4.00;2.40;;;;;;;13.57;58.40;98360.28;5029247;28;20656;-71
2023/09/24 05:04:04;;;;;;;2.23;2.03;;;;;;;13.57;58.54;98352.38;5027938;28;20184;-72
2023/09/24 05:06:32;;;;;;;3.90;2.40;;;;;;;13.66;58.23;98364.69;5022501;28;20183;-72
2023/09/24 05:08:57;;;;;;;3.60;2.33;;;;;;;13.65;57.90;98368.28;5039164;28;20835;-72
2023/09/24 05:11:23;;;;;;;4.07;2.37;;;;;;;13.60;58.21;98370.53;5039164;28;20423;-69
2023/09/24 05:13:48;;;;;;;4.97;2.67;;;;;;;13.61;57.95;98368.72;5028573;28;20191;-73
2023/09/24 05:16:15;;;;;;;4.17;2.40;;;;;;;13.56;58.18;98373.59;5036303;28;20206;-70
2023/09/24 05:18:41;;;;;;;2.40;2.20;;;;;;;13.59;58.33;98379.41;5011103;28;20893;-71
2023/09/24 05:21:17;;;;;;;2.93;2.50;;;;;;;13.51;58.42;98377.50;5041906;28;20426;-71
2023/09/24 05:23:43;;;;;;;4.10;2.57;;;;;;;13.52;58.10;98376.53;5030053;28;20657;-72
2023/09/24 05:26:13;;;;;;;3.60;2.40;;;;;;;13.47;58.47;98381.38;5024265;28;20422;-72
2023/09/24 05:28:39;;;;;;;5.83;2.40;;;;;;;13.48;58.60;98385.66;5028426;28;20453;-71
2023/09/24 05:31:04;;;;;;;3.83;2.30;;;;;;;13.52;58.47;98379.16;5042012;28;20422;-71
2023/09/24 05:33:30;;;;;;;3.67;2.20;;;;;;;13.51;58.28;98389.81;5031394;28;20279;-72
2023/09/24 05:35:55;;;;;;;4.90;2.60;;;;;;;13.52;58.64;98386.22;5027821;28;20261;-71
2023/09/24 05:38:21;;;;;;;3.43;2.47;;;;;;;13.69;58.22;98389.09;5032710;28;20663;-71
2023/09/24 05:40:47;;;;;;;3.90;2.40;;;;;;;13.91;57.78;98380.81;5033973;28;20191;-71
2023/09/24 05:43:12;;;;;;;3.53;2.20;;;;;;;14.16;57.01;98381.13;5031553;28;20190;-71
2023/09/24 05:45:50;;;;;;;3.53;2.17;;;;;;;14.27;56.73;98386.19;5041836;28;20182;-73
2023/09/24 05:48:17;;;;;;;2.47;2.27;;;;;;;14.36;56.54;98387.13;5028201;28;20214;-72
2023/09/24 05:50:46;;;;;;;4.20;2.50;;;;;;;14.46;56.27;98383.59;5010290;28;20431;-71
2023/09/24 05:53:12;;;;;;;2.67;2.10;;;;;;;14.51;56.24;98376.09;5016933;28;20454;-71
2023/09/24 05:55:38;;;;;;;4.00;2.57;;;;;;;14.52;56.28;98381.19;5011968;28;20431;-71
2023/09/24 05:58:04;;;;;;;2.30;2.10;;;;;;;14.53;56.61;98384.69;5026023;28;20616;-72
2023/09/24 06:00:31;;;;;;;3.30;2.23;;;;;;;14.53;56.76;98384.69;5016572;28;20278;-71
2023/09/24 06:02:57;;;;;;;5.23;2.20;;;;;;;14.59;57.07;98377.00;5039237;28;20517;-72
2023/09/24 06:05:22;;;;;;;2.40;2.20;;;;;;;14.65;57.31;98378.22;5027074;28;20502;-73
2023/09/24 06:07:48;;;;;;;2.47;2.20;;;;;;;14.71;57.19;98382.09;5035868;28;20442;-71
2023/09/24 06:10:13;;;;;;;6.80;2.53;;;;;;;14.75;57.13;98383.44;5036031;28;20686;-71
2023/09/24 06:12:39;;;;;;;3.63;2.43;;;;;;;14.73;57.39;98388.88;5033147;28;20186;-73
2023/09/24 06:15:05;;;;;;;5.43;2.50;;;;;;;14.82;57.23;98387.16;5028319;28;20241;-71
2023/09/24 06:17:31;;;;;;;5.97;2.50;;;;;;;14.87;57.36;98394.59;5023306;28;20211;-72
2023/09/24 06:19:56;;;;;;;5.27;2.80;;;;;;;14.95;57.17;98399.94;5038870;28;20417;-72
2023/09/24 06:22:23;;;;;;;3.70;2.50;;;;;;;15.06;57.23;98401.53;5028736;28;20191;-72
2023/09/24 06:24:50;;;;;;;2.90;2.40;;;;;;;15.12;57.30;98394.81;5036270;28;20190;-71
2023/09/24 06:27:16;;;;;;;4.40;2.80;;;;;;;15.24;57.36;98393.59;5011366;28;20414;-73
2023/09/24 06:29:42;;;;;;;5.20;3.10;;;;;;;15.36;57.24;98402.94;5047351;28;20441;-72
2023/09/24 06:32:08;;;;;;;2.90;2.60;;;;;;;15.48;57.08;98405.31;5034980;28;20423;-72
2023/09/24 06:34:36;;;;;;;4.60;2.80;;;;;;;15.55;56.88;98401.09;5040458;28;20925;-70
2023/09/24 06:37:02;;;;;;;5.07;2.60;;;;;;;15.69;56.90;98398.88;5045153;28;20195;-71
2023/09/24 06:39:29;;;;;;;3.30;3.00;;;;;;;15.79;56.85;98400.41;5033746;28;20478;-71
2023/09/24 06:41:55;;;;;;;4.30;2.70;;;;;;;15.90;56.93;98403.78;5033465;28;20495;-71
2023/09/24 06:44:22;;;;;;;6.20;3.10;;;;;;;16.03;56.92;98398.09;5037893;28;20422;-71
2023/09/24 06:46:48;;;;;;;3.20;2.90;;;;;;;16.16;56.74;98402.91;5041808;28;20185;-70
2023/09/24 06:49:14;;;;;;;6.77;3.30;;;;;;;16.31;56.68;98405.81;5033621;28;20438;-72
2023/09/24 06:51:39;;;;;;;4.37;3.30;;;;;;;16.41;56.09;98406.50;5035515;28;20424;-72
2023/09/24 06:54:05;;;;;;;7.50;3.90;;;;;;;16.56;55.88;98404.06;5044156;28;20710;-74
2023/09/24 06:56:30;;;;;;;4.77;3.70;;;;;;;16.66;56.27;98411.88;5039290;28;20580;-72
2023/09/24 06:58:56;;;;;;;3.93;3.53;;;;;;;16.74;56.02;98407.44;5031837;28;20687;-71
2023/09/24 07:01:22;;;;;;;5.53;3.97;;;;;;;16.84;55.20;98401.16;5044935;28;20283;-72
2023/09/24 07:03:48;;;;;;;4.90;3.27;;;;;;;16.99;55.62;98407.50;5031456;28;20180;-73
2023/09/24 07:06:16;;;;;;;4.90;3.47;;;;;;;17.13;55.38;98410.47;5037362;28;20418;-73
2023/09/24 07:08:41;;;;;;;5.80;3.00;;;;;;;17.16;54.87;98410.13;5044930;28;20479;-72
2023/09/24 07:11:26;;;;;;;3.73;2.87;;;;;;;17.27;54.97;98414.28;5036552;28;20418;-72
2023/09/24 07:13:51;;;;;;;4.33;3.27;;;;;;;17.39;55.14;98415.59;5025484;28;20205;-72
2023/09/24 07:16:22;;;;;;;4.10;2.93;;;;;;;17.50;55.29;98417.09;5013042;28;20458;-71
2023/09/24 07:18:49;;;;;;;5.57;3.20;;;;;;;17.66;55.27;98417.06;5042601;28;20226;-72
2023/09/24 07:21:15;;;;;;;3.57;2.90;;;;;;;17.74;54.87;98423.34;5033859;28;20437;-72
2023/09/24 07:23:41;;;;;;;3.30;2.80;;;;;;;17.81;54.67;98424.31;5037847;28;20472;-72
2023/09/24 07:26:08;;;;;;;5.70;2.37;;;;;;;17.94;54.62;98421.97;5038471;28;20179;-72
2023/09/24 07:28:34;;;;;;;5.17;2.40;;;;;;;18.05;53.82;98423.47;5040678;28;20237;-72
2023/09/24 07:31:00;;;;;;;2.20;2.00;;;;;;;18.11;54.03;98427.28;5040456;28;20426;-72
2023/09/24 07:33:26;;;;;;;4.80;2.60;;;;;;;18.22;54.10;98426.91;5032042;28;20859;-72
2023/09/24 07:35:52;;;;;;;4.50;2.97;;;;;;;18.30;53.86;98423.38;5042354;28;20214;-72
2023/09/24 07:38:18;;;;;;;3.83;2.70;;;;;;;18.33;53.28;98422.19;5017279;28;22083;-72
2023/09/24 07:40:43;;;;;;;4.43;2.53;;;;;;;18.32;52.74;98428.50;5038338;28;20192;-73
2023/09/24 07:43:09;;;;;;;3.00;2.37;;;;;;;18.38;53.01;98426.00;5032700;28;20998;-72
2023/09/24 07:45:37;;;;;;;5.10;2.70;;;;;;;18.55;53.09;98431.22;5012033;28;20198;-72
2023/09/24 07:48:06;;;;;;;3.43;2.57;;;;;;;18.67;52.16;98427.19;5040939;28;20604;-71
2023/09/24 07:50:32;;;;;;;3.30;2.23;;;;;;;18.79;51.64;98438.22;5035034;28;21178;-72
2023/09/24 07:52:57;;;;;;;8.50;2.77;;;;;;;18.90;51.20;98433.53;5047029;28;20457;-72
2023/09/24 07:55:22;;;;;;;3.83;2.50;;;;;;;18.93;50.68;98435.81;5033457;28;20263;-72
2023/09/24 07:57:48;;;;;;;7.90;2.20;;;;;;;19.02;50.20;98435.63;5036387;28;20250;-73
2023/09/24 08:00:13;;;;;;;5.27;2.50;;;;;;;19.21;50.38;98424.69;5030202;28;20203;-72
2023/09/24 08:02:39;;;;;;;3.50;2.50;;;;;;;19.39;50.91;98422.56;5045884;28;20179;-71
2023/09/24 08:05:05;;;;;;;5.57;2.63;;;;;;;19.54;49.97;98430.56;5038142;28;20259;-72
2023/09/24 08:07:32;;;;;;;4.60;2.60;;;;;;;19.69;49.43;98427.94;5040064;28;20190;-73
2023/09/24 08:09:58;;;;;;;3.77;2.70;;;;;;;19.92;49.37;98429.72;5015955;28;20430;-72
2023/09/24 08:12:24;;;;;;;4.90;2.47;;;;;;;20.14;48.93;98432.50;5045361;28;20464;-72
2023/09/24 08:14:49;;;;;;;4.50;2.43;;;;;;;20.34;48.20;98430.91;5041819;28;20902;-72
2023/09/24 08:17:15;;;;;;;5.30;2.50;;;;;;;20.52;47.19;98427.03;5038003;28;20199;-72
2023/09/24 08:19:40;;;;;;;3.37;2.20;;;;;;;20.79;47.19;98430.03;5031702;28;20209;-72
2023/09/24 08:22:06;;;;;;;1.83;1.70;;;;;;;21.06;46.71;98428.47;5029247;28;20180;-72
2023/09/24 08:24:32;;;;;;;2.27;1.80;;;;;;;21.26;44.98;98423.31;5034976;28;20565;-73
2023/09/24 08:26:57;;;;;;;4.13;2.00;;;;;;;21.49;45.12;98427.59;5038249;28;20266;-72
2023/09/24 08:29:22;;;;;;;3.40;1.80;;;;;;;21.74;43.55;98428.00;5036063;28;20228;-72
2023/09/24 08:31:48;;;;;;;4.13;2.17;;;;;;;21.87;43.76;98431.78;5029813;28;20191;-71
2023/09/24 08:34:13;;;;;;;2.50;2.00;;;;;;;21.87;42.14;98432.63;5036438;28;20728;-73
2023/09/24 08:36:39;;;;;;;2.80;1.80;;;;;;;21.89;42.54;98432.41;5017049;28;20215;-73
2023/09/24 08:39:05;;;;;;;3.80;1.97;;;;;;;22.05;42.62;98433.97;5037847;28;20231;-72
2023/09/24 08:41:30;;;;;;;4.10;1.97;;;;;;;22.36;42.38;98438.84;5032339;28;20629;-72
2023/09/24 08:43:56;;;;;;;2.67;1.67;;;;;;;22.59;40.66;98435.06;5037970;28;20183;-74
2023/09/24 08:46:22;;;;;;;4.13;2.10;;;;;;;22.79;40.32;98427.13;5043212;28;20753;-72
2023/09/24 08:48:48;;;;;;;6.40;1.93;;;;;;;22.76;38.67;98432.84;5032158;28;20282;-72
2023/09/24 08:51:14;;;;;;;3.90;2.10;;;;;;;22.89;39.90;98442.75;5036968;28;20430;-72
2023/09/24 08:53:40;;;;;;;4.37;2.27;;;;;;;23.07;39.68;98436.81;5043438;28;20191;-72
2023/09/24 08:56:05;;;;;;;3.70;1.90;;;;;;;23.34;39.18;98426.19;5036829;28;20200;-72
2023/09/24 08:58:31;;;;;;;3.17;2.00;;;;;;;23.52;39.08;98430.09;5010753;28;20251;-73
2023/09/24 09:00:56;;;;;;;2.30;1.60;;;;;;;23.66;38.02;98426.41;5011302;28;20653;-72
2023/09/24 09:03:22;;;;;;;3.93;2.03;;;;;;;23.62;38.74;98426.00;5040431;28;20206;-73
2023/09/24 09:05:49;;;;;;;2.63;1.83;;;;;;;23.76;38.74;98431.31;5036455;28;20269;-73
2023/09/24 09:08:14;;;;;;;4.40;1.70;;;;;;;23.92;37.61;98422.03;5038775;28;20199;-72
2023/09/24 09:10:39;;;;;;;3.23;1.80;;;;;;;24.02;38.06;98425.13;5037159;28;21130;-71
2023/09/24 09:13:08;;;;;;;4.93;1.70;;;;;;;24.16;37.34;98419.72;5040098;28;20192;-72
2023/09/24 09:15:36;;;;;;;3.73;1.70;;;;;;;24.33;36.62;98423.56;5028460;28;20188;-73
2023/09/24 09:18:02;;;;;;;3.20;1.70;;;;;;;24.57;36.15;98417.72;5028912;28;20458;-73
2023/09/24 09:20:39;;;;;;;4.20;2.67;;;;;;;24.85;34.75;98412.00;4987933;28;20798;-74
2023/09/24 09:23:06;;;;;;;2.60;1.77;;;;;;;25.03;34.43;98407.78;5029236;28;20418;-71
2023/09/24 09:25:31;;;;;;;3.03;1.90;;;;;;;25.08;34.36;98407.94;5028218;28;20418;-72
2023/09/24 09:27:56;;;;;;;3.10;1.80;;;;;;;25.24;33.29;98414.66;5037050;28;20529;-73
2023/09/24 09:30:22;;;;;;;4.37;1.97;;;;;;;25.30;33.35;98414.59;5021801;28;20262;-69
2023/09/24 09:32:48;;;;;;;4.53;1.80;;;;;;;25.52;33.80;98406.19;5003379;28;20237;-72
2023/09/24 09:35:15;;;;;;;4.37;2.03;;;;;;;25.75;33.92;98404.72;4999988;28;20180;-72
2023/09/24 09:37:42;;;;;;;3.37;2.30;;;;;;;25.88;33.05;98404.59;5036896;28;20223;-72
2023/09/24 09:40:09;;;;;;;5.67;2.50;;;;;;;26.15;33.41;98404.34;5039119;28;20426;-73
2023/09/24 09:42:36;;;;;;;4.97;2.40;;;;;;;26.27;33.31;98407.09;5037992;28;20430;-74
2023/09/24 09:45:07;;;;;;;2.57;2.00;;;;;;;26.36;32.57;98404.91;5034116;28;20520;-73
2023/09/24 09:47:34;;;;;;;3.60;1.60;;;;;;;26.38;32.22;98408.19;5036453;28;20433;-73
2023/09/24 09:50:00;;;;;;;6.07;2.00;;;;;;;26.44;32.14;98401.94;5028661;28;20418;-73
2023/09/24 09:52:44;;;;;;;3.33;1.63;;;;;;;26.53;30.46;98407.78;5036956;28;20428;-72
2023/09/24 09:55:09;;;;;;;3.73;1.97;;;;;;;26.43;30.38;98397.59;5021780;28;20430;-72
2023/09/24 09:57:35;;;;;;;3.43;2.73;;;;;;;26.48;30.52;98405.78;5030912;28;20497;-73
2023/09/24 10:00:10;;;;;;;4.87;2.60;;;;;;;26.69;30.50;98406.34;5033113;28;20222;-72
2023/09/24 10:02:37;;;;;;;4.33;1.83;;;;;;;26.79;29.98;98403.97;5042276;28;20191;-72
2023/09/24 10:05:03;;;;;;;3.67;1.50;;;;;;;26.59;29.00;98401.53;5028153;28;20422;-72
2023/09/24 10:07:28;;;;;;;6.73;4.37;;;;;;;26.71;29.50;98401.59;5013609;28;20423;-72
2023/09/24 10:09:54;;;;;;;18.53;15.17;;;;;;;27.06;30.04;98398.19;5029261;28;20441;-72
2023/09/24 10:12:34;;;;;;;3.10;1.90;;;;;;;27.16;29.33;98399.50;5028486;28;20266;-72
2023/09/24 10:15:26;;;;;;;6.17;3.77;;;;;;;27.33;29.71;98392.41;5027125;28;20599;-72
2023/09/24 10:18:06;;;;;;;3.07;2.10;;;;;;;27.34;29.37;98391.34;5038646;28;20973;-73
2023/09/24 10:20:59;;;;;;;4.20;2.73;;;;;;;27.41;29.20;98386.66;5028394;28;20425;-72
2023/09/24 10:23:31;;;;;;;3.77;3.33;;;;;;;27.57;29.51;98393.25;5020960;28;20438;-72
2023/09/24 10:26:01;;;;;;;2.10;1.70;;;;;;;27.56;28.74;98390.78;5032699;28;20502;-73
2023/09/24 10:28:48;;;;;;;4.17;2.10;;;;;;;27.49;29.16;98390.06;5042849;28;20510;-73
2023/09/24 10:31:16;;;;;;;7.10;5.00;;;;;;;27.79;28.71;98394.53;5028841;28;20492;-72
2023/09/24 10:33:51;;;;;;;3.50;2.30;;;;;;;27.86;28.69;98396.03;5024550;28;20481;-72
2023/09/24 10:36:35;;;;;;;2.87;1.77;;;;;;;27.88;28.13;98395.78;5035508;28;20871;-72
2023/09/24 10:39:12;;;;;;;4.33;2.60;;;;;;;28.00;28.84;98396.59;5027881;28;20454;-72
2023/09/24 10:42:10;;;;;;;5.00;3.63;;;;;;;28.21;28.82;98386.28;5044603;28;20456;-73
2023/09/24 10:44:36;;;;;;;4.60;3.50;;;;;;;28.39;28.26;98390.69;5042658;28;20516;-71
2023/09/24 10:47:24;;;;;;;4.73;2.60;;;;;;;28.48;28.08;98391.13;5032564;28;20413;-73
2023/09/24 10:49:50;;;;;;;13.03;10.57;;;;;;;28.60;28.15;98393.75;5034860;28;20441;-72
2023/09/24 10:52:16;;;;;;;4.87;2.40;;;;;;;28.47;27.49;98386.78;5029359;28;20549;-72
2023/09/24 10:54:45;;;;;;;6.10;3.30;;;;;;;28.51;26.94;98387.94;5017499;28;20530;-71
2023/09/24 10:57:22;;;;;;;4.10;2.60;;;;;;;28.43;27.14;98382.94;5026699;28;20242;-72
2023/09/24 10:59:48;;;;;;;3.43;2.70;;;;;;;28.40;27.36;98383.41;5031581;28;20458;-72
2023/09/24 11:02:14;;;;;;;3.70;1.83;;;;;;;28.44;26.64;98389.97;5031691;28;20434;-71
2023/09/24 11:04:40;;;;;;;4.43;3.27;;;;;;;28.69;27.00;98386.09;5041833;28;20184;-72
2023/09/24 11:07:12;;;;;;;7.93;4.00;;;;;;;28.62;26.43;98380.84;5041966;28;20503;-71
2023/09/24 11:09:37;;;;;;;2.77;1.93;;;;;;;28.47;26.92;98384.91;5037269;28;20199;-72
2023/09/24 11:12:09;;;;;;;3.17;1.80;;;;;;;28.41;26.75;98379.66;5013260;28;20781;-73
2023/09/24 11:14:34;;;;;;;4.77;1.77;;;;;;;27.93;27.51;98379.75;5035415;28;20233;-72
2023/09/24 11:17:00;;;;;;;3.20;2.27;;;;;;;27.39;28.42;98380.69;5032043;28;20916;-72
2023/09/24 11:19:45;;;;;;;5.20;2.50;;;;;;;26.97;28.56;98384.25;5002220;28;20293;-73
2023/09/24 11:22:23;;;;;;;2.23;1.80;;;;;;;26.78;28.19;98380.81;5031108;28;20176;-71
2023/09/24 11:25:11;;;;;;;3.03;1.70;;;;;;;26.25;29.06;98381.50;5041589;28;20413;-71
2023/09/24 11:27:59;;;;;;;2.57;1.70;;;;;;;25.98;30.43;98377.25;5030571;28;20484;-72
2023/09/24 11:30:38;;;;;;;2.90;1.90;;;;;;;26.02;29.40;98374.91;5039262;28;20414;-72
2023/09/24 11:33:10;;;;;;;2.60;1.90;;;;;;;25.79;29.92;98371.03;5039037;28;20461;-72
2023/09/24 11:35:37;;;;;;;4.27;2.07;;;;;;;26.04;29.86;98370.16;5035763;28;20434;-72